Hlavní strana
METAR-TAF:

METAR-TAF

Letiště :

Čeljabinsk, Rusko

zeměpisná šířka: 55-10N, zeměpisná délka: 061-24E, výška: 234 m

Aktuální stav počasí

Zpráva byla vytvořena před 41 minutami, v 11:30 UTC
Západoseverozápadní vítr 10 kt
Teplota 16°C
Vlhkost vzduchu 20%
Tlak 1011 hPa
Viditelnost 10 km a více
Polojasno ve výšce 4000 ft

METAR: USCC 231130Z 30005MPS 9999 SCT040 16/M07 Q1011 R27/000060 NOSIG RMK QFE738

Čas: 17:11 (12:11 UTC)

Předpověď počasí

Zpráva byla vytvořena před 1 hodinou a 11 minutami, v 11:00 UTC
Předpověď platná od 23 v 12 UTC do 24 v 12 UTC
Severozápadní vítr 10 kt s nárazy do 29 kt
Viditelnost 10 km a více
Polojasno ve výšce 3000 ft, Cumulonimbus.
Změna
od 23 v 15 UTC do 23 v 17 UTC
Severozápadní vítr 6 kt s nárazy do 16 kt
Dočasný
od 23 v 17 UTC do 24 v 03 UTC
Viditelnost: 3100 m
Oblačno až skoro zataženo ve výšce 1100 ft, Cumulonimbus.
slabé dešťové přeháňky

TAF: USCC 231100Z 2312/2412 32005G15MPS 9999 SCT030CB BECMG 2315/2317 31003G08MPS TEMPO 2317/2403 3100 -SHRA BKN011CB

Stav a předpovědi počasí z více než 4 000 letišť (zprávy METAR a TAF).

Červené a žluté tečky na mapě představují dostupné meteorologické stanice.

Když kurzor umístíte na tečku, zobrazí se název stanice.

Pak kliknutím zobrazíte stav a předpověď počasí.

Chcete-li změnit mapu, kliknutím na zelené tlačítko se znaménkem +mapu přiblížíte, kliknutím na zelené tlačítko se znaménkem – mapu oddálíte a kliknutím na zelené šipky přejdete na sousední mapy.


METAR-TAF: